Saturday, January 20, 2018, 10:10 AM EST
Back to Local

KALB, Albany International Airport

Location: Latham, NY, United States Lat: 42.75
Local Time: 10:10 AM EST (15:10 GMT) Lon: -73.8
Time Zone: US/Eastern Elev: 285 ft

Show me the last for .
Show Decoded

2018-01-20 09:51 METAR KALB 201451Z 16004KT 10SM SCT170 BKN270 01/M06 A2981 RMK AO2 SLP099
                 T00111061 53021 =
2018-01-20 08:51 METAR KALB 201351Z 17004KT 10SM SCT170 BKN270 M01/M07 A2979 RMK AO2 SLP091
                 T10061067 =
2018-01-20 07:51 METAR KALB 201251Z 16005KT 10SM BKN170 BKN270 00/M07 A2977 RMK AO2 SLP086 BKN170
                 V SCT T00001067 =
2018-01-20 06:51 METAR KALB 201151Z 19007KT 10SM BKN160 BKN180 BKN230 M01/M07 A2975 RMK AO2
                 SLP079 4/003 T10061067 11006 21039 55004 =
2018-01-20 05:51 METAR KALB 201051Z 18007KT 10SM SCT160 BKN180 BKN230 M02/M07 A2974 RMK AO2
                 SLP075 SCT V BKN T10171072 =
2018-01-20 04:51 METAR KALB 200951Z 19006KT 10SM SCT160 BKN190 BKN230 M02/M08 A2974 RMK AO2
                 SLP074 T10221078 =
2018-01-20 03:51 METAR KALB 200851Z VRB03KT 10SM BKN160 BKN190 BKN230 M03/M08 A2977 RMK AO2
                 SLP083 BKN160 V SCT T10281083 58012 =
2018-01-20 01:51 METAR KALB 200651Z 17008KT 10SM BKN160 BKN180 OVC220 M02/M08 A2980 RMK AO2
                 SLP096 T10221083 =
2018-01-20 00:51 METAR KALB 200551Z 18011KT 10SM FEW120 BKN150 BKN170 BKN220 M02/M08 A2980 RMK
                 AO2 SLP095 4/003 T10221083 11022 21067 58027 =
2018-01-19 23:51 METAR KALB 200451Z 17013KT 10SM SCT120 SCT160 SCT190 BKN250 M02/M09 A2984 RMK
                 AO2 SLP108 T10221089 410111111 =
2018-01-19 22:51 METAR KALB 200351Z 18011KT 10SM FEW190 BKN250 M03/M09 A2986 RMK AO2 SLP116
                 T10281089 =
2018-01-19 21:51 METAR KALB 200251Z 17004KT 10SM FEW210 BKN250 M04/M09 A2988 RMK AO2 SLP123 BKN V
                 SCT T10391094 58020 =
2018-01-19 20:51 METAR KALB 200151Z 17005KT 10SM FEW200 BKN250 M04/M09 A2990 RMK AO2 SLP129
                 T10391089 =
2018-01-19 19:51 METAR KALB 200051Z 00000KT 10SM SCT200 BKN250 M06/M09 A2993 RMK AO2 SLP139 BKN V
                 OVC T10561094 =
2018-01-19 18:51 METAR KALB 192351Z 00000KT 10SM BKN220 M07/M10 A2994 RMK AO2 SLP144 4/003
                 T10671100 11011 21067 55005 =
2018-01-19 17:51 METAR KALB 192251Z 00000KT 10SM FEW035 SCT230 M04/M09 A2994 RMK AO2 SLP144
                 T10391089 =
2018-01-19 16:51 METAR KALB 192151Z 17003KT 10SM FEW029 BKN035 BKN240 M02/M08 A2994 RMK AO2
                 SLP141 T10171083 =
2018-01-19 16:30 METAR KALB 192130Z 17005KT 10SM SCT029 OVC035 M02/M08 A2994 RMK AO2 BINOVC
                 T10171083 =
2018-01-19 15:51 METAR KALB 192051Z 16003KT 10SM BKN029 OVC035 M01/M08 A2996 RMK AO2 SLP148
                 T10111078 55005 =
2018-01-19 14:51 METAR KALB 191951Z 00000KT 10SM OVC029 M02/M08 A2996 RMK AO2 SLP148 BINOVC DSNT
                 SW T10171083 =
2018-01-19 13:51 METAR KALB 191851Z 19003KT 9SM OVC029 M02/M08 A2996 RMK AO2 SLP150 T10221083 =
2018-01-19 12:51 METAR KALB 191751Z 18005KT 10SM OVC032 M03/M09 A2997 RMK AO2 SLP153 4/003 933003
                 I6000 T10281094 11028 21111 58018 =
2018-01-19 11:51 METAR KALB 191651Z 18005KT 10SM OVC034 M04/M09 A2999 RMK AO2 SLP160 T10391094 =
2018-01-19 10:51 METAR KALB 191551Z 18005KT 10SM OVC037 M05/M11 A3002 RMK AO2 SLP169 OCNL BINOVC
                 T10501106 =

Support USWX by starting your Amazon purchase here.